createdAt,value
2019-02-19T00:00:24.930Z,19.42
2019-02-19T00:01:30.058Z,19.41
2019-02-19T00:02:33.737Z,19.42
2019-02-19T00:03:37.217Z,19.41
2019-02-19T00:04:40.724Z,19.43
2019-02-19T00:05:44.315Z,19.43
2019-02-19T00:06:47.963Z,19.42
2019-02-19T00:07:51.474Z,19.43
2019-02-19T00:08:54.956Z,19.42
2019-02-19T00:09:58.531Z,19.41
2019-02-19T00:11:02.129Z,19.41
2019-02-19T00:12:05.682Z,19.42
2019-02-19T00:13:09.355Z,19.42
2019-02-19T00:14:12.837Z,19.42
2019-02-19T00:15:16.473Z,19.41
2019-02-19T00:16:20.049Z,19.42
2019-02-19T00:17:23.544Z,19.41
2019-02-19T00:18:27.126Z,19.40
2019-02-19T00:19:30.619Z,19.41
2019-02-19T00:20:34.123Z,19.42
2019-02-19T00:21:37.645Z,19.42
2019-02-19T00:22:41.256Z,19.42
2019-02-19T00:23:44.840Z,19.42
2019-02-19T00:24:48.473Z,19.40
2019-02-19T00:25:51.986Z,19.40
2019-02-19T00:26:55.583Z,19.41
2019-02-19T00:27:59.078Z,19.41
2019-02-19T00:29:02.561Z,19.41
2019-02-19T00:30:07.196Z,19.41
2019-02-19T00:31:10.682Z,19.40
2019-02-19T00:32:14.200Z,19.40
2019-02-19T00:33:17.693Z,19.40
2019-02-19T00:34:21.209Z,19.40
2019-02-19T00:35:24.780Z,19.40
2019-02-19T00:36:28.278Z,19.39
2019-02-19T00:37:31.815Z,19.38
2019-02-19T00:38:35.293Z,19.35
2019-02-19T00:39:38.808Z,19.37
2019-02-19T00:40:42.355Z,19.38
2019-02-19T00:41:45.942Z,19.36
2019-02-19T00:42:49.448Z,19.35
2019-02-19T00:43:52.942Z,19.38
2019-02-19T00:44:56.432Z,19.37
2019-02-19T00:45:59.922Z,19.36
2019-02-19T00:47:03.432Z,19.34
2019-02-19T00:48:06.947Z,19.34
2019-02-19T00:49:10.436Z,19.35
2019-02-19T00:50:14.082Z,19.33
2019-02-19T00:51:17.570Z,19.35
2019-02-19T00:52:21.092Z,19.36
2019-02-19T00:53:24.584Z,19.34
2019-02-19T00:54:28.173Z,19.35
2019-02-19T00:55:31.713Z,19.35
2019-02-19T00:56:35.191Z,19.35
2019-02-19T00:57:38.756Z,19.35
2019-02-19T00:58:42.269Z,19.33
2019-02-19T00:59:45.816Z,19.34
2019-02-19T01:00:49.392Z,19.33
2019-02-19T01:01:52.913Z,19.33
2019-02-19T01:02:56.499Z,19.33
2019-02-19T01:04:00.086Z,19.34
2019-02-19T01:05:04.029Z,19.34
2019-02-19T01:06:07.614Z,19.34
2019-02-19T01:07:11.355Z,19.33
2019-02-19T01:08:15.001Z,19.32
2019-02-19T01:09:19.340Z,19.32
2019-02-19T01:10:22.837Z,19.34
2019-02-19T01:11:26.397Z,19.33
2019-02-19T01:12:29.966Z,19.33
2019-02-19T01:13:33.633Z,19.32
2019-02-19T01:14:37.183Z,19.31
2019-02-19T01:15:40.746Z,19.34
2019-02-19T01:16:44.248Z,19.33
2019-02-19T01:17:47.800Z,19.34
2019-02-19T01:18:51.337Z,19.34
2019-02-19T01:19:54.835Z,19.34
2019-02-19T01:20:58.329Z,19.31
2019-02-19T01:22:01.835Z,19.33
2019-02-19T01:23:05.394Z,19.32
2019-02-19T01:24:08.911Z,19.33
2019-02-19T01:25:12.546Z,19.32
2019-02-19T01:26:16.033Z,19.32
2019-02-19T01:27:19.532Z,19.31
2019-02-19T01:28:23.027Z,19.31
2019-02-19T01:29:26.618Z,19.30
2019-02-19T01:30:30.131Z,19.31
2019-02-19T01:31:33.603Z,19.30
2019-02-19T01:32:37.141Z,19.31
2019-02-19T01:33:40.634Z,19.29
2019-02-19T01:34:44.151Z,19.30
2019-02-19T01:35:47.662Z,19.30
2019-02-19T01:36:51.145Z,19.30
2019-02-19T01:37:54.617Z,19.29
2019-02-19T01:38:58.140Z,19.28
2019-02-19T01:40:01.665Z,19.30
2019-02-19T01:41:05.181Z,19.27
2019-02-19T01:42:08.737Z,19.30
2019-02-19T01:43:12.249Z,19.29
2019-02-19T01:44:15.734Z,19.30
2019-02-19T01:45:19.277Z,19.30
2019-02-19T01:46:22.822Z,19.30
2019-02-19T01:47:26.319Z,19.31
2019-02-19T01:48:29.806Z,19.32
2019-02-19T01:49:33.328Z,19.32
2019-02-19T01:50:36.859Z,19.32
2019-02-19T01:51:40.389Z,19.33
2019-02-19T01:52:43.901Z,19.33
2019-02-19T01:53:47.397Z,19.33
2019-02-19T01:54:50.946Z,19.33
2019-02-19T01:55:54.483Z,19.32
2019-02-19T01:56:58.030Z,19.32
2019-02-19T01:58:01.615Z,19.32
2019-02-19T01:59:05.274Z,19.32
2019-02-19T02:00:10.962Z,19.31
2019-02-19T02:01:14.482Z,19.30
2019-02-19T02:02:18.055Z,19.30
2019-02-19T02:03:21.546Z,19.30
2019-02-19T02:04:25.036Z,19.30
2019-02-19T02:05:28.607Z,19.30
2019-02-19T02:06:32.129Z,19.29
2019-02-19T02:07:35.688Z,19.29
2019-02-19T02:08:39.178Z,19.29
2019-02-19T02:09:42.670Z,19.28
2019-02-19T02:10:46.244Z,19.28
2019-02-19T02:11:49.777Z,19.29
2019-02-19T02:12:53.280Z,19.27
2019-02-19T02:13:56.769Z,19.25
2019-02-19T02:15:00.285Z,19.26
2019-02-19T02:16:03.755Z,19.25
2019-02-19T02:17:07.269Z,19.25
2019-02-19T02:18:10.767Z,19.23
2019-02-19T02:19:14.259Z,19.24
2019-02-19T02:20:17.739Z,19.23
2019-02-19T02:21:21.249Z,19.24
2019-02-19T02:22:24.782Z,19.23
2019-02-19T02:23:28.370Z,19.23
2019-02-19T02:24:31.852Z,19.22
2019-02-19T02:25:35.403Z,19.22
2019-02-19T02:26:38.949Z,19.20
2019-02-19T02:27:42.584Z,19.22
2019-02-19T02:28:46.095Z,19.20
2019-02-19T02:29:49.600Z,19.21
2019-02-19T02:30:53.113Z,19.21
2019-02-19T02:31:56.591Z,19.21
2019-02-19T02:33:00.182Z,19.20
2019-02-19T02:34:03.660Z,19.20
2019-02-19T02:35:07.297Z,19.20
2019-02-19T02:36:10.810Z,19.20
2019-02-19T02:37:14.295Z,19.20
2019-02-19T02:38:17.809Z,19.19
2019-02-19T02:39:21.329Z,19.19
2019-02-19T02:40:24.805Z,19.19
2019-02-19T02:41:28.377Z,19.18
2019-02-19T02:42:31.852Z,19.16
2019-02-19T02:43:35.428Z,19.18
2019-02-19T02:44:38.932Z,19.17
2019-02-19T02:45:52.433Z,19.16
2019-02-19T02:46:47.747Z,19.17
2019-02-19T02:47:51.257Z,19.16
2019-02-19T02:48:54.741Z,19.16
2019-02-19T02:49:58.333Z,19.16
2019-02-19T02:51:01.814Z,19.16
2019-02-19T02:52:05.361Z,19.15
2019-02-19T02:53:08.890Z,19.16
2019-02-19T02:54:12.466Z,19.15
2019-02-19T02:55:16.040Z,19.16
2019-02-19T02:56:19.544Z,19.16
2019-02-19T02:57:23.036Z,19.15
2019-02-19T02:58:26.578Z,19.16
2019-02-19T02:59:30.121Z,19.16
2019-02-19T03:00:33.748Z,19.14
2019-02-19T03:01:37.249Z,19.14
2019-02-19T03:02:40.719Z,19.15
2019-02-19T03:03:44.346Z,19.15
2019-02-19T03:04:47.844Z,19.15
2019-02-19T03:06:08.811Z,19.15
2019-02-19T03:07:17.030Z,19.15
2019-02-19T03:08:20.513Z,19.14
2019-02-19T03:09:24.023Z,19.14
2019-02-19T03:10:27.597Z,19.15
2019-02-19T03:11:31.091Z,19.15
2019-02-19T03:12:34.607Z,19.13
2019-02-19T03:13:38.118Z,19.15
2019-02-19T03:14:41.693Z,19.14
2019-02-19T03:15:45.193Z,19.14
2019-02-19T03:16:48.675Z,19.13
2019-02-19T03:17:52.226Z,19.13
2019-02-19T03:18:55.741Z,19.13
2019-02-19T03:19:59.241Z,19.12
2019-02-19T03:21:02.821Z,19.10
2019-02-19T03:22:06.342Z,19.11
2019-02-19T03:23:09.821Z,19.10
2019-02-19T03:24:13.322Z,19.12
2019-02-19T03:25:16.841Z,19.11
2019-02-19T03:26:20.327Z,19.11
2019-02-19T03:27:23.863Z,19.11
2019-02-19T03:28:27.305Z,19.11
2019-02-19T03:29:30.816Z,19.10
2019-02-19T03:30:34.322Z,19.09
2019-02-19T03:31:37.828Z,19.09
2019-02-19T03:32:41.314Z,19.08
2019-02-19T03:33:44.817Z,19.09
2019-02-19T03:34:48.320Z,19.07
2019-02-19T03:35:51.835Z,19.09
2019-02-19T03:36:55.319Z,19.07
2019-02-19T03:37:58.830Z,19.08
2019-02-19T03:39:02.324Z,19.07
2019-02-19T03:40:07.780Z,19.06
2019-02-19T03:41:13.912Z,19.06
2019-02-19T03:42:17.485Z,19.06
2019-02-19T03:43:20.982Z,19.06
2019-02-19T03:44:24.472Z,19.04
2019-02-19T03:45:27.989Z,19.05
2019-02-19T03:46:31.639Z,19.04
2019-02-19T03:47:35.126Z,19.04
2019-02-19T03:48:38.643Z,19.04
2019-02-19T03:49:42.143Z,19.04
2019-02-19T03:50:45.639Z,19.02
2019-02-19T03:51:49.150Z,19.03
2019-02-19T03:52:52.650Z,19.03
2019-02-19T03:53:56.304Z,19.02
2019-02-19T03:54:59.838Z,19.03
2019-02-19T03:56:03.361Z,19.01
2019-02-19T03:57:07.139Z,19.03
2019-02-19T03:58:10.710Z,19.01
2019-02-19T03:59:14.437Z,19.02
2019-02-19T04:00:18.096Z,19.01
2019-02-19T04:01:21.583Z,19.01
2019-02-19T04:02:25.182Z,19.01
2019-02-19T04:03:28.798Z,19.00
2019-02-19T04:04:32.484Z,19.01
2019-02-19T04:05:35.999Z,19.00
2019-02-19T04:06:39.494Z,19.00
2019-02-19T04:07:43.016Z,18.99
2019-02-19T04:08:46.584Z,18.99
2019-02-19T04:09:50.079Z,18.99
2019-02-19T04:10:53.572Z,18.98
2019-02-19T04:11:57.207Z,18.99
2019-02-19T04:13:00.728Z,18.99
2019-02-19T04:14:04.283Z,19.00
2019-02-19T04:15:08.324Z,18.98
2019-02-19T04:16:20.821Z,19.01
2019-02-19T04:17:17.030Z,19.00
2019-02-19T04:18:20.615Z,19.01
2019-02-19T04:19:24.101Z,19.01
2019-02-19T04:20:27.597Z,19.02
2019-02-19T04:21:31.176Z,19.03
2019-02-19T04:22:34.672Z,19.03
2019-02-19T04:23:38.191Z,19.05
2019-02-19T04:24:41.695Z,19.05
2019-02-19T04:25:45.194Z,19.06
2019-02-19T04:26:48.699Z,19.08
2019-02-19T04:27:52.190Z,19.09
2019-02-19T04:28:55.710Z,19.12
2019-02-19T04:29:59.205Z,19.12
2019-02-19T04:31:02.699Z,19.14
2019-02-19T04:32:06.279Z,19.15
2019-02-19T04:33:10.041Z,19.16
2019-02-19T04:34:13.569Z,19.16
2019-02-19T04:35:17.069Z,19.18
2019-02-19T04:36:20.627Z,19.19
2019-02-19T04:37:24.159Z,19.20
2019-02-19T04:38:27.637Z,19.21
2019-02-19T04:39:31.215Z,19.20
2019-02-19T04:40:34.817Z,19.22
2019-02-19T04:41:38.330Z,19.22
2019-02-19T04:42:41.807Z,19.23
2019-02-19T04:43:45.313Z,19.25
2019-02-19T04:44:48.816Z,19.25
2019-02-19T04:45:52.366Z,19.25
2019-02-19T04:46:55.998Z,19.25
2019-02-19T04:47:59.495Z,19.26
2019-02-19T04:49:03.032Z,19.26
2019-02-19T04:50:08.355Z,19.26
2019-02-19T04:51:11.829Z,19.27
2019-02-19T04:52:15.343Z,19.26
2019-02-19T04:53:18.831Z,19.26
2019-02-19T04:54:22.335Z,19.26
2019-02-19T04:55:25.881Z,19.27
2019-02-19T04:56:29.361Z,19.25
2019-02-19T04:57:32.864Z,19.25
2019-02-19T04:58:36.357Z,19.26
2019-02-19T04:59:39.852Z,19.25
2019-02-19T05:00:43.517Z,19.26
2019-02-19T05:01:47.018Z,19.25
2019-02-19T05:02:51.599Z,19.26
2019-02-19T05:03:55.173Z,19.25
2019-02-19T05:04:58.644Z,19.26
2019-02-19T05:06:02.188Z,19.26
2019-02-19T05:07:05.749Z,19.25
2019-02-19T05:08:09.291Z,19.27
2019-02-19T05:09:12.803Z,19.26
2019-02-19T05:10:16.273Z,19.27
2019-02-19T05:11:19.822Z,19.27
2019-02-19T05:12:23.327Z,19.27
2019-02-19T05:13:26.809Z,19.25
2019-02-19T05:14:30.326Z,19.27
2019-02-19T05:15:33.787Z,19.26
2019-02-19T05:16:40.668Z,19.25
2019-02-19T05:17:42.595Z,19.27
2019-02-19T05:18:46.075Z,19.27
2019-02-19T05:19:49.580Z,19.28
2019-02-19T05:20:53.161Z,19.27
2019-02-19T05:21:56.667Z,19.26
2019-02-19T05:23:00.178Z,19.26
2019-02-19T05:24:04.291Z,19.26
2019-02-19T05:25:08.419Z,19.25
2019-02-19T05:26:11.990Z,19.26
2019-02-19T05:27:15.504Z,19.25
2019-02-19T05:28:19.087Z,19.25
2019-02-19T05:29:22.589Z,19.25
2019-02-19T05:30:26.063Z,19.24
2019-02-19T05:31:29.582Z,19.24
2019-02-19T05:32:33.093Z,19.24
2019-02-19T05:33:36.571Z,19.25
2019-02-19T05:34:40.086Z,19.24
2019-02-19T05:35:43.559Z,19.25
2019-02-19T05:36:47.065Z,19.24
2019-02-19T05:37:50.657Z,19.22
2019-02-19T05:38:54.143Z,19.24
2019-02-19T05:39:57.718Z,19.25
2019-02-19T05:41:04.266Z,19.25
2019-02-19T05:42:07.909Z,19.26
2019-02-19T05:43:11.445Z,19.26
2019-02-19T05:44:14.950Z,19.26
2019-02-19T05:45:18.440Z,19.26
2019-02-19T05:46:21.935Z,19.23
2019-02-19T05:47:25.457Z,19.24
2019-02-19T05:48:28.957Z,19.24
2019-02-19T05:49:32.455Z,19.24
2019-02-19T05:50:35.983Z,19.24
2019-02-19T05:51:39.460Z,19.23
2019-02-19T05:52:42.981Z,19.23
2019-02-19T05:53:46.472Z,19.23
2019-02-19T05:54:50.022Z,19.22
2019-02-19T05:55:53.602Z,19.23
2019-02-19T05:56:57.081Z,19.22
2019-02-19T05:58:00.590Z,19.22
2019-02-19T05:59:04.270Z,19.22
2019-02-19T06:00:10.804Z,19.20
2019-02-19T06:01:14.444Z,19.21
2019-02-19T06:02:17.946Z,19.21
2019-02-19T06:03:21.434Z,19.19
2019-02-19T06:04:24.995Z,19.20
2019-02-19T06:05:28.491Z,19.21
2019-02-19T06:06:32.007Z,19.19
2019-02-19T06:07:35.507Z,19.19
2019-02-19T06:08:39.031Z,19.19
2019-02-19T06:09:42.559Z,19.21
2019-02-19T06:10:46.041Z,19.19
2019-02-19T06:11:49.527Z,19.20
2019-02-19T06:12:53.156Z,19.19
2019-02-19T06:13:56.637Z,19.21
2019-02-19T06:15:00.291Z,19.21
2019-02-19T06:16:03.761Z,19.20
2019-02-19T06:17:07.311Z,19.21
2019-02-19T06:18:10.827Z,19.21
2019-02-19T06:19:14.309Z,19.21
2019-02-19T06:20:17.812Z,19.20
2019-02-19T06:21:21.401Z,19.21
2019-02-19T06:22:24.940Z,19.19
2019-02-19T06:23:28.453Z,19.20
2019-02-19T06:24:31.967Z,19.22
2019-02-19T06:25:35.551Z,19.21
2019-02-19T06:26:39.110Z,19.19
2019-02-19T06:27:42.637Z,19.22
2019-02-19T06:28:46.192Z,19.23
2019-02-19T06:29:49.698Z,19.22
2019-02-19T06:30:53.211Z,19.23
2019-02-19T06:31:56.724Z,19.23
2019-02-19T06:33:00.230Z,19.22
2019-02-19T06:34:03.707Z,19.23
2019-02-19T06:35:08.153Z,19.22
2019-02-19T06:36:11.652Z,19.22
2019-02-19T06:37:15.140Z,19.21
2019-02-19T06:38:18.659Z,19.20
2019-02-19T06:39:22.129Z,19.20
2019-02-19T06:40:27.629Z,19.19
2019-02-19T06:41:31.173Z,19.20
2019-02-19T06:42:34.723Z,19.21
2019-02-19T06:43:38.316Z,19.20
2019-02-19T06:44:41.819Z,19.20
2019-02-19T06:45:45.371Z,19.19
2019-02-19T06:46:49.036Z,19.18
2019-02-19T06:47:52.584Z,19.20
2019-02-19T06:48:56.123Z,19.18
2019-02-19T06:49:59.693Z,19.19
2019-02-19T06:51:03.185Z,19.18
2019-02-19T06:52:06.705Z,19.18
2019-02-19T06:53:10.197Z,19.18
2019-02-19T06:54:13.680Z,19.20
2019-02-19T06:55:17.193Z,19.21
2019-02-19T06:56:20.788Z,19.21
2019-02-19T06:57:24.313Z,19.22
2019-02-19T06:58:27.807Z,19.22
2019-02-19T06:59:31.303Z,19.24
2019-02-19T07:00:34.877Z,19.25
2019-02-19T07:01:46.060Z,19.25
2019-02-19T07:02:53.730Z,19.26
2019-02-19T07:03:58.931Z,19.28
2019-02-19T07:05:02.522Z,19.30
2019-02-19T07:06:06.150Z,19.30
2019-02-19T07:07:09.769Z,19.32
2019-02-19T07:08:13.257Z,19.32
2019-02-19T07:09:16.756Z,19.33
2019-02-19T07:10:20.280Z,19.33
2019-02-19T07:11:23.801Z,19.38
2019-02-19T07:12:27.302Z,19.40
2019-02-19T07:13:30.863Z,19.40
2019-02-19T07:14:34.349Z,19.40
2019-02-19T07:15:37.920Z,19.42
2019-02-19T07:16:41.401Z,19.42
2019-02-19T07:17:44.927Z,19.46
2019-02-19T07:18:48.421Z,19.46
2019-02-19T07:19:51.920Z,19.48
2019-02-19T07:20:55.494Z,19.52
2019-02-19T07:21:58.989Z,19.54
2019-02-19T07:23:02.504Z,19.55
2019-02-19T07:24:06.066Z,19.54
2019-02-19T07:25:11.662Z,19.53
2019-02-19T07:26:15.167Z,19.54
2019-02-19T07:27:18.725Z,19.55
2019-02-19T07:28:22.236Z,19.55
2019-02-19T07:29:25.798Z,19.55
2019-02-19T07:30:29.366Z,19.55
2019-02-19T07:31:32.934Z,19.50
2019-02-19T07:32:36.440Z,19.45
2019-02-19T07:33:39.988Z,19.48
2019-02-19T07:34:43.492Z,19.45
2019-02-19T07:35:47.046Z,19.44
2019-02-19T07:36:50.631Z,19.41
2019-02-19T07:37:54.130Z,19.42
2019-02-19T07:38:57.677Z,19.40
2019-02-19T07:40:01.242Z,19.41
2019-02-19T07:41:04.813Z,19.46
2019-02-19T07:42:08.311Z,19.46
2019-02-19T07:43:11.880Z,19.45
2019-02-19T07:44:15.513Z,19.41
2019-02-19T07:45:19.074Z,19.35
2019-02-19T07:46:22.564Z,19.30
2019-02-19T07:47:26.123Z,19.27
2019-02-19T07:48:29.671Z,19.23
2019-02-19T07:49:33.212Z,19.20
2019-02-19T07:50:36.858Z,19.18
2019-02-19T07:51:40.442Z,19.14
2019-02-19T07:52:44.010Z,19.12
2019-02-19T07:53:47.519Z,19.09
2019-02-19T07:54:51.059Z,19.06
2019-02-19T07:55:54.618Z,19.03
2019-02-19T07:56:58.153Z,19.03
2019-02-19T07:58:01.663Z,19.02
2019-02-19T07:59:05.222Z,19.00
2019-02-19T08:00:14.423Z,19.01
2019-02-19T08:01:18.004Z,18.99
2019-02-19T08:02:21.500Z,18.97
2019-02-19T08:03:25.004Z,18.95
2019-02-19T08:04:28.499Z,18.93
2019-02-19T08:05:32.019Z,18.92
2019-02-19T08:06:35.527Z,18.91
2019-02-19T08:07:39.082Z,18.92
2019-02-19T08:08:42.650Z,18.88
2019-02-19T08:09:46.223Z,18.87
2019-02-19T08:10:49.752Z,18.86
2019-02-19T08:11:53.354Z,18.84
2019-02-19T08:12:56.926Z,18.84
2019-02-19T08:14:00.454Z,18.81
2019-02-19T08:15:05.080Z,18.80
2019-02-19T08:16:08.666Z,18.79
2019-02-19T08:17:12.180Z,18.79
2019-02-19T08:18:15.678Z,18.76
2019-02-19T08:19:19.187Z,18.73
2019-02-19T08:20:22.678Z,18.72
2019-02-19T08:21:26.271Z,18.69
2019-02-19T08:22:29.895Z,18.67
2019-02-19T08:23:33.397Z,18.66
2019-02-19T08:24:36.897Z,18.62
2019-02-19T08:25:40.421Z,18.58
2019-02-19T08:26:44.036Z,18.58
2019-02-19T08:27:47.679Z,18.55
2019-02-19T08:28:51.244Z,18.55
2019-02-19T08:29:54.741Z,18.54
2019-02-19T08:30:58.252Z,18.51
2019-02-19T08:32:01.788Z,18.50
2019-02-19T08:33:05.290Z,18.48
2019-02-19T08:34:08.786Z,18.46
2019-02-19T08:35:12.280Z,18.43
2019-02-19T08:36:15.840Z,18.40
2019-02-19T08:37:19.355Z,18.38
2019-02-19T08:38:22.966Z,18.37
2019-02-19T08:39:26.486Z,18.37
2019-02-19T08:40:29.978Z,18.36
2019-02-19T08:41:33.517Z,18.35
2019-02-19T08:42:37.051Z,18.35
2019-02-19T08:43:40.571Z,18.34
2019-02-19T08:44:44.098Z,18.32
2019-02-19T08:45:47.605Z,18.31
2019-02-19T08:46:51.111Z,18.28
2019-02-19T08:47:54.711Z,18.27
2019-02-19T08:48:58.300Z,18.25
2019-02-19T08:50:01.814Z,18.25
2019-02-19T08:51:05.405Z,18.24
2019-02-19T08:52:08.983Z,18.25
2019-02-19T08:53:12.547Z,18.24
2019-02-19T08:54:16.111Z,18.22
2019-02-19T08:55:19.616Z,18.21
2019-02-19T08:56:23.198Z,18.21
2019-02-19T08:57:26.699Z,18.18
2019-02-19T08:58:30.406Z,18.18
2019-02-19T08:59:34.000Z,18.18
2019-02-19T09:00:38.585Z,18.18
2019-02-19T09:01:42.200Z,18.16
2019-02-19T09:02:45.776Z,18.15
2019-02-19T09:03:49.381Z,18.13
2019-02-19T09:04:52.942Z,18.10
2019-02-19T09:05:56.537Z,18.11
2019-02-19T09:07:00.109Z,18.11
2019-02-19T09:08:03.725Z,18.11
2019-02-19T09:09:07.460Z,18.12
2019-02-19T09:10:12.659Z,18.12
2019-02-19T09:11:16.195Z,18.11
2019-02-19T09:12:19.758Z,18.12
2019-02-19T09:13:23.357Z,18.10
2019-02-19T09:14:26.918Z,18.09
2019-02-19T09:15:30.403Z,18.07
2019-02-19T09:16:33.997Z,18.01
2019-02-19T09:17:37.552Z,17.97
2019-02-19T09:18:41.104Z,17.96
2019-02-19T09:19:44.641Z,17.96
2019-02-19T09:20:48.129Z,17.96
2019-02-19T09:21:51.640Z,18.00
2019-02-19T09:22:55.155Z,18.03
2019-02-19T09:23:58.696Z,18.05
2019-02-19T09:25:02.333Z,18.09
2019-02-19T09:26:05.833Z,18.12
2019-02-19T09:27:09.317Z,18.16
2019-02-19T09:28:12.850Z,18.21
2019-02-19T09:29:16.387Z,18.25
2019-02-19T09:30:20.011Z,18.30
2019-02-19T09:31:23.555Z,18.33
2019-02-19T09:32:27.116Z,18.37
2019-02-19T09:33:30.740Z,18.39
2019-02-19T09:34:34.270Z,18.43
2019-02-19T09:35:37.890Z,18.45
2019-02-19T09:36:41.407Z,18.48
2019-02-19T09:37:44.895Z,18.51
2019-02-19T09:38:48.495Z,18.53
2019-02-19T09:39:52.033Z,18.54
2019-02-19T09:40:55.657Z,18.56
2019-02-19T09:41:59.307Z,18.57
2019-02-19T09:43:02.866Z,18.58
2019-02-19T09:44:06.534Z,18.58
2019-02-19T09:45:10.803Z,18.60
2019-02-19T09:46:14.304Z,18.60
2019-02-19T09:47:17.998Z,18.60
2019-02-19T09:48:21.525Z,18.60
2019-02-19T09:49:25.012Z,18.62
2019-02-19T09:50:28.624Z,18.63
2019-02-19T09:51:32.183Z,18.65
2019-02-19T09:52:35.679Z,18.67
2019-02-19T09:53:39.207Z,18.69
2019-02-19T09:54:42.683Z,18.71
2019-02-19T09:55:46.235Z,18.71
2019-02-19T09:56:49.759Z,18.74
2019-02-19T09:57:53.241Z,18.78
2019-02-19T09:58:56.763Z,18.80
2019-02-19T10:00:00.290Z,18.80
2019-02-19T10:01:03.908Z,18.83
2019-02-19T10:02:07.440Z,18.84
2019-02-19T10:03:11.010Z,18.86
2019-02-19T10:04:14.523Z,18.86
2019-02-19T10:05:18.051Z,18.88
2019-02-19T10:06:21.567Z,18.90
2019-02-19T10:07:25.076Z,18.90
2019-02-19T10:08:28.567Z,18.92
2019-02-19T10:09:32.064Z,18.93
2019-02-19T10:10:35.610Z,18.92
2019-02-19T10:11:39.182Z,18.91
2019-02-19T10:12:42.699Z,18.90
2019-02-19T10:13:46.296Z,18.89
2019-02-19T10:14:49.852Z,18.87
2019-02-19T10:15:53.384Z,18.85
2019-02-19T10:16:56.940Z,18.88
2019-02-19T10:18:00.461Z,18.86
2019-02-19T10:19:03.930Z,18.85
2019-02-19T10:20:09.590Z,18.82
2019-02-19T10:21:15.759Z,18.79
2019-02-19T10:22:19.326Z,18.78
2019-02-19T10:23:22.884Z,18.77
2019-02-19T10:24:26.437Z,18.76
2019-02-19T10:25:29.939Z,18.75
2019-02-19T10:26:33.465Z,18.75
2019-02-19T10:27:37.050Z,18.72
2019-02-19T10:28:40.653Z,18.74
2019-02-19T10:29:44.156Z,18.73
2019-02-19T10:30:47.714Z,18.74
2019-02-19T10:31:51.373Z,18.75
2019-02-19T10:32:54.904Z,18.75
2019-02-19T10:33:58.431Z,18.76
2019-02-19T10:35:01.944Z,18.78
2019-02-19T10:36:05.543Z,18.78
2019-02-19T10:37:09.149Z,18.78
2019-02-19T10:38:12.746Z,18.79
2019-02-19T10:39:16.318Z,18.80
2019-02-19T10:40:20.996Z,18.81
2019-02-19T10:41:24.533Z,18.82
2019-02-19T10:42:28.135Z,18.82
2019-02-19T10:43:31.695Z,18.83
2019-02-19T10:44:35.185Z,18.84
2019-02-19T10:45:38.774Z,18.86
2019-02-19T10:46:42.279Z,18.86
2019-02-19T10:47:45.778Z,18.86
2019-02-19T10:48:49.474Z,18.88
2019-02-19T10:49:53.009Z,18.90
2019-02-19T10:50:56.532Z,18.90
2019-02-19T10:52:00.169Z,18.93
2019-02-19T10:53:03.724Z,18.95
2019-02-19T10:54:07.571Z,18.96
2019-02-19T10:55:11.275Z,18.99
2019-02-19T10:56:14.808Z,19.01
2019-02-19T10:57:18.373Z,19.03
2019-02-19T10:58:23.188Z,19.05
2019-02-19T10:59:26.923Z,19.08
2019-02-19T11:00:30.447Z,19.10
2019-02-19T11:01:34.062Z,19.13
2019-02-19T11:02:37.596Z,19.14
2019-02-19T11:03:41.074Z,19.13
2019-02-19T11:04:44.665Z,19.14
2019-02-19T11:05:48.323Z,19.14
2019-02-19T11:06:51.833Z,19.13
2019-02-19T11:07:55.419Z,19.12
2019-02-19T11:08:59.046Z,19.09
2019-02-19T11:10:02.610Z,19.10
2019-02-19T11:11:06.271Z,19.10
2019-02-19T11:12:09.761Z,19.11
2019-02-19T11:13:13.253Z,19.11
2019-02-19T11:14:16.770Z,19.09
2019-02-19T11:15:20.349Z,19.09
2019-02-19T11:16:23.840Z,19.08
2019-02-19T11:17:27.426Z,19.05
2019-02-19T11:18:30.923Z,19.01
2019-02-19T11:19:34.472Z,19.00
2019-02-19T11:20:37.982Z,18.97
2019-02-19T11:21:41.537Z,18.95
2019-02-19T11:22:45.122Z,18.91
2019-02-19T11:23:48.698Z,18.91
2019-02-19T11:24:52.224Z,18.89
2019-02-19T11:25:55.822Z,18.86
2019-02-19T11:26:59.330Z,18.85
2019-02-19T11:28:02.848Z,18.82
2019-02-19T11:29:06.407Z,18.81
2019-02-19T11:30:20.599Z,18.78
2019-02-19T11:31:24.363Z,18.76
2019-02-19T11:32:27.863Z,18.75
2019-02-19T11:33:31.366Z,18.71
2019-02-19T11:34:34.878Z,18.72
2019-02-19T11:35:38.382Z,18.71
2019-02-19T11:36:41.923Z,18.70
2019-02-19T11:37:45.584Z,18.68
2019-02-19T11:38:49.084Z,18.69
2019-02-19T11:39:52.604Z,18.67
2019-02-19T11:40:56.109Z,18.66
2019-02-19T11:41:59.715Z,18.65
2019-02-19T11:43:03.299Z,18.64
2019-02-19T11:44:06.867Z,18.63
2019-02-19T11:45:13.111Z,18.63
2019-02-19T11:46:16.610Z,18.62
2019-02-19T11:47:26.456Z,18.61
2019-02-19T11:48:25.464Z,18.61
2019-02-19T11:49:28.978Z,18.59
2019-02-19T11:50:32.501Z,18.59
2019-02-19T11:51:36.029Z,18.60
2019-02-19T11:52:39.636Z,18.58
2019-02-19T11:53:43.160Z,18.58
2019-02-19T11:54:46.638Z,18.57
2019-02-19T11:55:50.144Z,18.57
2019-02-19T11:56:53.737Z,18.57
2019-02-19T11:57:57.345Z,18.55
2019-02-19T11:59:00.920Z,18.55
2019-02-19T12:00:06.966Z,18.54
2019-02-19T12:01:10.645Z,18.54
2019-02-19T12:02:14.529Z,18.54
2019-02-19T12:03:18.037Z,18.54
2019-02-19T12:04:21.604Z,18.53
2019-02-19T12:05:25.121Z,18.53
2019-02-19T12:06:28.740Z,18.51
2019-02-19T12:07:32.273Z,18.50
2019-02-19T12:08:39.114Z,18.51
2019-02-19T12:09:41.025Z,18.52
2019-02-19T12:10:44.641Z,18.50
2019-02-19T12:11:48.193Z,18.51
2019-02-19T12:12:51.726Z,18.50
2019-02-19T12:13:55.391Z,18.50
2019-02-19T12:14:58.900Z,18.48
2019-02-19T12:16:02.471Z,18.49
2019-02-19T12:17:06.062Z,18.48
2019-02-19T12:18:09.605Z,18.47
2019-02-19T12:19:13.170Z,18.47
2019-02-19T12:20:16.746Z,18.48
2019-02-19T12:21:20.344Z,18.47
2019-02-19T12:22:23.999Z,18.46
2019-02-19T12:23:27.598Z,18.47
2019-02-19T12:24:31.262Z,18.45
2019-02-19T12:25:34.829Z,18.47
2019-02-19T12:26:38.408Z,18.45
2019-02-19T12:27:42.049Z,18.45
2019-02-19T12:28:45.588Z,18.45
2019-02-19T12:29:49.085Z,18.44
2019-02-19T12:30:52.661Z,18.44
2019-02-19T12:31:56.188Z,18.45
2019-02-19T12:32:59.783Z,18.43
2019-02-19T12:34:03.310Z,18.44
2019-02-19T12:35:07.734Z,18.42
2019-02-19T12:36:11.324Z,18.43
2019-02-19T12:37:14.811Z,18.44
2019-02-19T12:38:18.301Z,18.44
2019-02-19T12:39:21.856Z,18.43
2019-02-19T12:40:25.484Z,18.44
2019-02-19T12:41:29.061Z,18.44
2019-02-19T12:42:32.579Z,18.47
2019-02-19T12:43:36.255Z,18.48
2019-02-19T12:44:39.913Z,18.51
2019-02-19T12:45:43.469Z,18.54
2019-02-19T12:46:46.984Z,18.55
2019-02-19T12:47:50.478Z,18.58
2019-02-19T12:48:54.929Z,18.56
2019-02-19T12:49:58.544Z,18.59
2019-02-19T12:51:02.092Z,18.61
2019-02-19T12:52:05.577Z,18.61
2019-02-19T12:53:09.166Z,18.61
2019-02-19T12:54:12.645Z,18.63
2019-02-19T12:55:16.293Z,18.61
2019-02-19T12:56:19.870Z,18.62
2019-02-19T12:57:23.363Z,18.62
2019-02-19T12:58:26.887Z,18.62
2019-02-19T12:59:31.212Z,18.63
2019-02-19T13:00:34.960Z,18.62
2019-02-19T13:01:38.478Z,18.62
2019-02-19T13:02:43.987Z,18.61
2019-02-19T13:03:47.414Z,18.61
2019-02-19T13:04:51.115Z,18.62
2019-02-19T13:05:54.820Z,18.60
2019-02-19T13:06:58.420Z,18.58
2019-02-19T13:08:02.046Z,18.58
2019-02-19T13:09:06.792Z,18.58
2019-02-19T13:10:11.570Z,18.56
2019-02-19T13:11:15.314Z,18.56
2019-02-19T13:12:19.529Z,18.56
2019-02-19T13:13:23.204Z,18.54
2019-02-19T13:14:26.926Z,18.55
2019-02-19T13:15:30.932Z,18.56
2019-02-19T13:16:34.448Z,18.55
2019-02-19T13:17:37.939Z,18.56
2019-02-19T13:18:41.532Z,18.56
2019-02-19T13:19:45.233Z,18.56
2019-02-19T13:20:48.915Z,18.56
2019-02-19T13:21:52.724Z,18.56
2019-02-19T13:22:56.184Z,18.57
2019-02-19T13:23:59.787Z,18.56
2019-02-19T13:25:03.359Z,18.56
2019-02-19T13:26:06.886Z,18.56
2019-02-19T13:27:10.442Z,18.54
2019-02-19T13:28:14.059Z,18.54
2019-02-19T13:29:17.587Z,18.54
2019-02-19T13:30:22.013Z,18.52
2019-02-19T13:31:25.608Z,18.51
2019-02-19T13:32:29.391Z,18.51
2019-02-19T13:33:32.980Z,18.49
2019-02-19T13:34:36.490Z,18.48
2019-02-19T13:35:40.903Z,18.47
2019-02-19T13:36:44.493Z,18.47
2019-02-19T13:37:48.055Z,18.47
2019-02-19T13:38:51.811Z,18.46
2019-02-19T13:39:55.456Z,18.45